AUA101 LOWW-LOWI
Flight info
| Callsign | AUA101 |
|---|---|
| Flight time | 0h 43m |
| Altitude | 30000 |
| Route | SOVIL1C/29 SOVIL DCT SITNI DCT BAGSI DCT NANIT NANIT2A |
| Aircraft | A320/M-SDE3FGHIRWY/LB1 |
Departure
| Time | 2026-04-25 20:19 |
|---|---|
| Airport | Vienna International Airport (LOWW) |
Arrival
| Time | 2026-04-25 21:03 |
|---|---|
| Airport | Innsbruck Airport (LOWI) |
| Time | Latitude | Longitude | Altitude | Speed | Heading |
|---|---|---|---|---|---|
| 2026-04-25 19:42 | 48.11931 | 16.56653 | 597 ft | 0 kts | 211° |
| 2026-04-25 19:56 | 48.11940 | 16.56661 | 597 ft | 4 kts | 210° |
| 2026-04-25 19:56 | 48.11963 | 16.56681 | 596 ft | 4 kts | 208° |
| 2026-04-25 19:57 | 48.11987 | 16.56699 | 596 ft | 4 kts | 206° |
| 2026-04-25 19:57 | 48.12011 | 16.56717 | 595 ft | 4 kts | 205° |
| 2026-04-25 19:57 | 48.12019 | 16.56722 | 595 ft | 0 kts | 205° |
| 2026-04-25 19:59 | 48.12018 | 16.56722 | 595 ft | 0 kts | 205° |
| 2026-04-25 19:59 | 48.12009 | 16.56718 | 595 ft | 1 kts | 193° |
| 2026-04-25 19:59 | 48.12007 | 16.56718 | 595 ft | 1 kts | 189° |
| 2026-04-25 20:00 | 48.11997 | 16.56726 | 595 ft | 0 kts | 136° |
| 2026-04-25 20:00 | 48.11996 | 16.56729 | 595 ft | 0 kts | 129° |
| 2026-04-25 20:03 | 48.11974 | 16.56787 | 597 ft | 15 kts | 116° |
| 2026-04-25 20:03 | 48.11931 | 16.56915 | 599 ft | 12 kts | 117° |
| 2026-04-25 20:03 | 48.11897 | 16.57018 | 601 ft | 10 kts | 114° |
| 2026-04-25 20:04 | 48.11873 | 16.57098 | 602 ft | 7 kts | 114° |
| 2026-04-25 20:04 | 48.11859 | 16.57151 | 603 ft | 4 kts | 103° |
| 2026-04-25 20:04 | 48.11856 | 16.57181 | 614 ft | 4 kts | 97° |
| 2026-04-25 20:04 | 48.11845 | 16.57236 | 617 ft | 7 kts | 111° |
| 2026-04-25 20:05 | 48.11818 | 16.57324 | 606 ft | 11 kts | 114° |
| 2026-04-25 20:05 | 48.11809 | 16.57400 | 615 ft | 1 kts | 89° |
| 2026-04-25 20:05 | 48.11812 | 16.57438 | 611 ft | 6 kts | 77° |
| 2026-04-25 20:05 | 48.11827 | 16.57529 | 608 ft | 11 kts | 79° |
| 2026-04-25 20:06 | 48.11791 | 16.57620 | 614 ft | 11 kts | 161° |
| 2026-04-25 20:06 | 48.11714 | 16.57652 | 618 ft | 12 kts | 170° |
| 2026-04-25 20:06 | 48.11638 | 16.57679 | 616 ft | 11 kts | 164° |
| 2026-04-25 20:06 | 48.11573 | 16.57704 | 609 ft | 8 kts | 171° |
| 2026-04-25 20:07 | 48.11524 | 16.57685 | 621 ft | 8 kts | 210° |
| 2026-04-25 20:07 | 48.11440 | 16.57633 | 611 ft | 16 kts | 177° |
| 2026-04-25 20:07 | 48.11332 | 16.57672 | 607 ft | 14 kts | 165° |
| 2026-04-25 20:07 | 48.11241 | 16.57710 | 614 ft | 13 kts | 163° |
| 2026-04-25 20:08 | 48.11195 | 16.57730 | 610 ft | 4 kts | 164° |
| 2026-04-25 20:08 | 48.11170 | 16.57741 | 610 ft | 3 kts | 164° |
| 2026-04-25 20:08 | 48.11165 | 16.57743 | 614 ft | 0 kts | 164° |
| 2026-04-25 20:08 | 48.11164 | 16.57743 | 614 ft | 1 kts | 170° |
| 2026-04-25 20:09 | 48.11160 | 16.57687 | 615 ft | 13 kts | 280° |
| 2026-04-25 20:09 | 48.11136 | 16.57594 | 610 ft | 2 kts | 189° |
| 2026-04-25 20:09 | 48.11122 | 16.57601 | 605 ft | 2 kts | 161° |
| 2026-04-25 20:09 | 48.11109 | 16.57611 | 615 ft | 2 kts | 145° |
| 2026-04-25 20:10 | 48.11102 | 16.57618 | 611 ft | 2 kts | 141° |
| 2026-04-25 20:10 | 48.11090 | 16.57632 | 604 ft | 2 kts | 146° |
| 2026-04-25 20:10 | 48.11080 | 16.57639 | 604 ft | 0 kts | 159° |
| 2026-04-25 20:14 | 48.11059 | 16.57646 | 603 ft | 7 kts | 177° |
| 2026-04-25 20:14 | 48.11024 | 16.57630 | 603 ft | 0 kts | 203° |
| 2026-04-25 20:17 | 48.11019 | 16.57627 | 603 ft | 3 kts | 203° |
| 2026-04-25 20:17 | 48.10962 | 16.57558 | 608 ft | 12 kts | 232° |
| 2026-04-25 20:17 | 48.10938 | 16.57476 | 616 ft | 14 kts | 269° |
| 2026-04-25 20:17 | 48.10948 | 16.57425 | 616 ft | 0 kts | 295° |
| 2026-04-25 20:18 | 48.10956 | 16.57400 | 618 ft | 14 kts | 295° |
| 2026-04-25 20:18 | 48.11043 | 16.57125 | 615 ft | 70 kts | 296° |
| 2026-04-25 20:18 | 48.11355 | 16.56158 | 600 ft | 135 kts | 296° |
| 2026-04-25 20:19 | 48.11815 | 16.54752 | 892 ft | 161 kts | 295° |
| 2026-04-25 20:19 | 48.12279 | 16.53187 | 1580 ft | 167 kts | 284° |
| 2026-04-25 20:19 | 48.12150 | 16.51408 | 2177 ft | 191 kts | 245° |
| 2026-04-25 20:19 | 48.11147 | 16.49932 | 2751 ft | 213 kts | 222° |
| 2026-04-25 20:20 | 48.09881 | 16.48723 | 3596 ft | 219 kts | 216° |
| 2026-04-25 20:20 | 48.08560 | 16.47555 | 4453 ft | 222 kts | 216° |
| 2026-04-25 20:20 | 48.07233 | 16.46265 | 4876 ft | 238 kts | 220° |
| 2026-04-25 20:20 | 48.05830 | 16.44645 | 4987 ft | 266 kts | 223° |
| 2026-04-25 20:21 | 48.04387 | 16.42862 | 5007 ft | 270 kts | 224° |
| 2026-04-25 20:21 | 48.02939 | 16.41011 | 5278 ft | 280 kts | 225° |
| 2026-04-25 20:21 | 48.01479 | 16.39116 | 6419 ft | 277 kts | 224° |
| 2026-04-25 20:21 | 48.00045 | 16.37247 | 7155 ft | 277 kts | 224° |
| 2026-04-25 20:22 | 47.98639 | 16.35304 | 7903 ft | 275 kts | 232° |
| 2026-04-25 20:22 | 47.97889 | 16.33732 | 8423 ft | 274 kts | 244° |
| 2026-04-25 20:22 | 47.97116 | 16.30189 | 9462 ft | 272 kts | 266° |
| 2026-04-25 20:22 | 47.97182 | 16.27388 | 10223 ft | 272 kts | 282° |
| 2026-04-25 20:23 | 47.97758 | 16.24664 | 10962 ft | 280 kts | 290° |
| 2026-04-25 20:23 | 47.98432 | 16.21899 | 11721 ft | 288 kts | 290° |
| 2026-04-25 20:23 | 47.99120 | 16.19051 | 12499 ft | 295 kts | 290° |
| 2026-04-25 20:23 | 47.99818 | 16.16138 | 13292 ft | 301 kts | 290° |
| 2026-04-25 20:24 | 48.00524 | 16.13175 | 14063 ft | 305 kts | 290° |
| 2026-04-25 20:24 | 48.01232 | 16.10201 | 14784 ft | 310 kts | 289° |
| 2026-04-25 20:24 | 48.01967 | 16.07115 | 15539 ft | 314 kts | 289° |
| 2026-04-25 20:24 | 48.02696 | 16.04050 | 16076 ft | 324 kts | 290° |
| 2026-04-25 20:25 | 48.03474 | 16.00776 | 16317 ft | 342 kts | 289° |
| 2026-04-25 20:25 | 48.04278 | 15.97392 | 16900 ft | 348 kts | 289° |
| 2026-04-25 20:25 | 48.05091 | 15.93959 | 17584 ft | 353 kts | 289° |
| 2026-04-25 20:25 | 48.05912 | 15.90484 | 18264 ft | 357 kts | 289° |
| 2026-04-25 20:26 | 48.06741 | 15.86964 | 18866 ft | 361 kts | 289° |
| 2026-04-25 20:26 | 48.07577 | 15.83414 | 19469 ft | 363 kts | 289° |
| 2026-04-25 20:26 | 48.08420 | 15.79835 | 20106 ft | 366 kts | 289° |
| 2026-04-25 20:26 | 48.09274 | 15.76230 | 20752 ft | 369 kts | 289° |
| 2026-04-25 20:27 | 48.10127 | 15.72658 | 21375 ft | 371 kts | 289° |
| 2026-04-25 20:27 | 48.11001 | 15.69002 | 21988 ft | 374 kts | 289° |
| 2026-04-25 20:27 | 48.11882 | 15.65324 | 22579 ft | 378 kts | 289° |
| 2026-04-25 20:27 | 48.12770 | 15.61609 | 23162 ft | 380 kts | 289° |
| 2026-04-25 20:28 | 48.13660 | 15.57862 | 23695 ft | 383 kts | 289° |
| 2026-04-25 20:28 | 48.14553 | 15.54086 | 24143 ft | 386 kts | 289° |
| 2026-04-25 20:28 | 48.15384 | 15.50244 | 24577 ft | 389 kts | 285° |
| 2026-04-25 20:28 | 48.16049 | 15.46302 | 25001 ft | 392 kts | 284° |
| 2026-04-25 20:29 | 48.16570 | 15.42273 | 25405 ft | 396 kts | 277° |
| 2026-04-25 20:29 | 48.16601 | 15.38124 | 25805 ft | 401 kts | 267° |
| 2026-04-25 20:29 | 48.16117 | 15.33984 | 26203 ft | 408 kts | 257° |
| 2026-04-25 20:29 | 48.15274 | 15.29907 | 26579 ft | 412 kts | 255° |
| 2026-04-25 20:30 | 48.14702 | 15.27191 | 26829 ft | 414 kts | 255° |
| 2026-04-25 20:30 | 48.13556 | 15.21726 | 27311 ft | 418 kts | 255° |
| 2026-04-25 20:30 | 48.12683 | 15.17566 | 27676 ft | 421 kts | 255° |
| 2026-04-25 20:30 | 48.11801 | 15.13372 | 28027 ft | 424 kts | 255° |
| 2026-04-25 20:31 | 48.10907 | 15.09149 | 28369 ft | 427 kts | 255° |
| 2026-04-25 20:31 | 48.10003 | 15.04907 | 28686 ft | 430 kts | 255° |
| 2026-04-25 20:31 | 48.09065 | 15.00651 | 29044 ft | 433 kts | 253° |
| 2026-04-25 20:31 | 48.08054 | 14.96397 | 29363 ft | 436 kts | 252° |
| 2026-04-25 20:32 | 48.06991 | 14.92140 | 29675 ft | 439 kts | 252° |
| 2026-04-25 20:32 | 48.05897 | 14.87860 | 29961 ft | 442 kts | 252° |
| 2026-04-25 20:32 | 48.03731 | 14.79401 | 30057 ft | 433 kts | 252° |
| 2026-04-25 20:33 | 48.01615 | 14.71010 | 30060 ft | 431 kts | 252° |
| 2026-04-25 20:33 | 47.99876 | 14.64043 | 30058 ft | 431 kts | 252° |
| 2026-04-25 20:34 | 47.97415 | 14.54220 | 30061 ft | 432 kts | 252° |
| 2026-04-25 20:34 | 47.95304 | 14.45876 | 30060 ft | 433 kts | 252° |
| 2026-04-25 20:35 | 47.93171 | 14.37477 | 30053 ft | 433 kts | 252° |
| 2026-04-25 20:35 | 47.91033 | 14.29087 | 30045 ft | 434 kts | 252° |
| 2026-04-25 20:36 | 47.88883 | 14.20687 | 30047 ft | 434 kts | 252° |
| 2026-04-25 20:36 | 47.86730 | 14.12280 | 30052 ft | 435 kts | 252° |
| 2026-04-25 20:37 | 47.84586 | 14.03918 | 30053 ft | 436 kts | 252° |
| 2026-04-25 20:37 | 47.82411 | 13.95491 | 30056 ft | 437 kts | 252° |
| 2026-04-25 20:38 | 47.80221 | 13.87068 | 30064 ft | 437 kts | 252° |
| 2026-04-25 20:38 | 47.78019 | 13.78621 | 30066 ft | 438 kts | 252° |
| 2026-04-25 20:39 | 47.75826 | 13.70231 | 30075 ft | 439 kts | 252° |
| 2026-04-25 20:39 | 47.73973 | 13.63150 | 30075 ft | 440 kts | 252° |
| 2026-04-25 20:40 | 47.71384 | 13.53309 | 30080 ft | 440 kts | 252° |
| 2026-04-25 20:40 | 47.69150 | 13.44840 | 30026 ft | 442 kts | 251° |
| 2026-04-25 20:41 | 47.68028 | 13.40600 | 29740 ft | 442 kts | 251° |
| 2026-04-25 20:41 | 47.66929 | 13.36458 | 29461 ft | 442 kts | 251° |
| 2026-04-25 20:41 | 47.65774 | 13.32112 | 29175 ft | 442 kts | 251° |
| 2026-04-25 20:41 | 47.64645 | 13.27867 | 28898 ft | 443 kts | 251° |
| 2026-04-25 20:42 | 47.63529 | 13.23680 | 28632 ft | 443 kts | 251° |
| 2026-04-25 20:42 | 47.62392 | 13.19429 | 28361 ft | 443 kts | 251° |
| 2026-04-25 20:42 | 47.61258 | 13.15196 | 28094 ft | 442 kts | 251° |
| 2026-04-25 20:42 | 47.60122 | 13.10972 | 27825 ft | 440 kts | 251° |
| 2026-04-25 20:43 | 47.58990 | 13.06770 | 27560 ft | 438 kts | 251° |
| 2026-04-25 20:43 | 47.57865 | 13.02584 | 27298 ft | 436 kts | 251° |
| 2026-04-25 20:43 | 47.56747 | 12.98419 | 27038 ft | 434 kts | 251° |
| 2026-04-25 20:43 | 47.55631 | 12.94272 | 26780 ft | 433 kts | 251° |
| 2026-04-25 20:44 | 47.54517 | 12.90148 | 26524 ft | 431 kts | 251° |
| 2026-04-25 20:44 | 47.53405 | 12.86041 | 26278 ft | 429 kts | 251° |
| 2026-04-25 20:44 | 47.52296 | 12.81960 | 26025 ft | 426 kts | 251° |
| 2026-04-25 20:44 | 47.51203 | 12.77956 | 25779 ft | 425 kts | 251° |
| 2026-04-25 20:45 | 47.50099 | 12.73917 | 25345 ft | 422 kts | 250° |
| 2026-04-25 20:45 | 47.49001 | 12.69913 | 24797 ft | 418 kts | 250° |
| 2026-04-25 20:45 | 47.47916 | 12.65951 | 24262 ft | 414 kts | 250° |
| 2026-04-25 20:45 | 47.46841 | 12.62027 | 23725 ft | 410 kts | 250° |
| 2026-04-25 20:46 | 47.45778 | 12.58145 | 23098 ft | 406 kts | 250° |
| 2026-04-25 20:46 | 47.44889 | 12.54220 | 22478 ft | 400 kts | 258° |
| 2026-04-25 20:46 | 47.44243 | 12.50242 | 21829 ft | 397 kts | 258° |
| 2026-04-25 20:46 | 47.43598 | 12.46284 | 21177 ft | 395 kts | 258° |
| 2026-04-25 20:47 | 47.42955 | 12.42354 | 20542 ft | 393 kts | 258° |
| 2026-04-25 20:47 | 47.42310 | 12.38435 | 19927 ft | 392 kts | 258° |
| 2026-04-25 20:47 | 47.41680 | 12.34588 | 19324 ft | 389 kts | 258° |
| 2026-04-25 20:47 | 47.41045 | 12.30714 | 18728 ft | 388 kts | 258° |
| 2026-04-25 20:48 | 47.40404 | 12.26852 | 18096 ft | 386 kts | 257° |
| 2026-04-25 20:48 | 47.39759 | 12.23017 | 17435 ft | 384 kts | 257° |
| 2026-04-25 20:48 | 47.39111 | 12.19201 | 16777 ft | 383 kts | 257° |
| 2026-04-25 20:48 | 47.38462 | 12.15400 | 16146 ft | 381 kts | 257° |
| 2026-04-25 20:49 | 47.37930 | 12.11590 | 15503 ft | 377 kts | 268° |
| 2026-04-25 20:49 | 47.38185 | 12.07788 | 14891 ft | 371 kts | 287° |
| 2026-04-25 20:49 | 47.39313 | 12.04401 | 14286 ft | 368 kts | 307° |
| 2026-04-25 20:49 | 47.41165 | 12.01841 | 13669 ft | 366 kts | 327° |
| 2026-04-25 20:50 | 47.43505 | 12.00428 | 13009 ft | 365 kts | 347° |
| 2026-04-25 20:50 | 47.46005 | 12.00329 | 12369 ft | 367 kts | 7° |
| 2026-04-25 20:50 | 47.48418 | 12.01565 | 11728 ft | 370 kts | 27° |
| 2026-04-25 20:50 | 47.50396 | 12.03992 | 11113 ft | 374 kts | 48° |
| 2026-04-25 20:51 | 47.51689 | 12.07321 | 10498 ft | 375 kts | 69° |
| 2026-04-25 20:51 | 47.52088 | 12.11096 | 10105 ft | 370 kts | 92° |
| 2026-04-25 20:51 | 47.51542 | 12.14703 | 9987 ft | 353 kts | 115° |
| 2026-04-25 20:51 | 47.50197 | 12.17582 | 10004 ft | 332 kts | 139° |
| 2026-04-25 20:52 | 47.48331 | 12.19337 | 10010 ft | 308 kts | 164° |
| 2026-04-25 20:52 | 47.46981 | 12.19781 | 9941 ft | 295 kts | 180° |
| 2026-04-25 20:52 | 47.44448 | 12.18911 | 9698 ft | 273 kts | 216° |
| 2026-04-25 20:52 | 47.43171 | 12.16992 | 9522 ft | 255 kts | 245° |
| 2026-04-25 20:53 | 47.42580 | 12.14652 | 9510 ft | 241 kts | 256° |
| 2026-04-25 20:53 | 47.42136 | 12.12275 | 9515 ft | 241 kts | 257° |
| 2026-04-25 20:53 | 47.41706 | 12.09889 | 9513 ft | 240 kts | 257° |
| 2026-04-25 20:53 | 47.41287 | 12.07509 | 9510 ft | 240 kts | 257° |
| 2026-04-25 20:54 | 47.40865 | 12.05112 | 9513 ft | 241 kts | 257° |
| 2026-04-25 20:54 | 47.40444 | 12.02725 | 9506 ft | 239 kts | 257° |
| 2026-04-25 20:54 | 47.39800 | 12.00453 | 9516 ft | 244 kts | 241° |
| 2026-04-25 20:54 | 47.38904 | 11.98306 | 9520 ft | 245 kts | 241° |
| 2026-04-25 20:55 | 47.38005 | 11.96167 | 9515 ft | 245 kts | 241° |
| 2026-04-25 20:55 | 47.37118 | 11.94070 | 9512 ft | 244 kts | 240° |
| 2026-04-25 20:55 | 47.36219 | 11.91945 | 9520 ft | 245 kts | 240° |
| 2026-04-25 20:55 | 47.35318 | 11.89823 | 9512 ft | 244 kts | 240° |
| 2026-04-25 20:56 | 47.34418 | 11.87700 | 9513 ft | 245 kts | 241° |
| 2026-04-25 20:56 | 47.33520 | 11.85573 | 9512 ft | 244 kts | 241° |
| 2026-04-25 20:56 | 47.32784 | 11.83338 | 9511 ft | 242 kts | 251° |
| 2026-04-25 20:56 | 47.32291 | 11.80968 | 9513 ft | 242 kts | 258° |
| 2026-04-25 20:57 | 47.31955 | 11.78576 | 9454 ft | 243 kts | 260° |
| 2026-04-25 20:57 | 47.31633 | 11.76131 | 9088 ft | 244 kts | 260° |
| 2026-04-25 20:57 | 47.31300 | 11.73650 | 8693 ft | 249 kts | 260° |
| 2026-04-25 20:57 | 47.30959 | 11.71144 | 8305 ft | 250 kts | 260° |
| 2026-04-25 20:58 | 47.30617 | 11.68627 | 7884 ft | 252 kts | 260° |
| 2026-04-25 20:58 | 47.30274 | 11.66109 | 7435 ft | 248 kts | 260° |
| 2026-04-25 20:58 | 47.29938 | 11.63654 | 7005 ft | 241 kts | 260° |
| 2026-04-25 20:58 | 47.29612 | 11.61267 | 6595 ft | 234 kts | 259° |
| 2026-04-25 20:59 | 47.29295 | 11.58948 | 6198 ft | 226 kts | 260° |
| 2026-04-25 20:59 | 47.28999 | 11.56792 | 5884 ft | 208 kts | 260° |
| 2026-04-25 20:59 | 47.28681 | 11.54763 | 5650 ft | 200 kts | 257° |
| 2026-04-25 20:59 | 47.28358 | 11.52774 | 5508 ft | 201 kts | 257° |
| 2026-04-25 21:00 | 47.28040 | 11.50867 | 5319 ft | 180 kts | 257° |
| 2026-04-25 21:00 | 47.27940 | 11.50272 | 5239 ft | 173 kts | 257° |
| 2026-04-25 21:00 | 47.27299 | 11.45998 | 4294 ft | 160 kts | 258° |
| 2026-04-25 21:01 | 47.27034 | 11.44412 | 3853 ft | 160 kts | 262° |
| 2026-04-25 21:01 | 47.26930 | 11.42812 | 3435 ft | 158 kts | 259° |
| 2026-04-25 21:01 | 47.26645 | 11.41262 | 3016 ft | 157 kts | 253° |
| 2026-04-25 21:01 | 47.26469 | 11.39709 | 2617 ft | 153 kts | 269° |
| 2026-04-25 21:02 | 47.26427 | 11.38147 | 2224 ft | 151 kts | 265° |
| 2026-04-25 21:02 | 47.26266 | 11.36682 | 2044 ft | 141 kts | 262° |
| 2026-04-25 21:02 | 47.26114 | 11.35283 | 1906 ft | 133 kts | 261° |
| 2026-04-25 21:02 | 47.26000 | 11.34159 | 1910 ft | 87 kts | 261° |
| 2026-04-25 21:03 | 47.25931 | 11.33533 | 1915 ft | 37 kts | 260° |
| 2026-04-25 21:03 | 47.25903 | 11.33293 | 1914 ft | 22 kts | 259° |
| 2026-04-25 21:03 | 47.25847 | 11.33152 | 1914 ft | 16 kts | 239° |
| 2026-04-25 21:03 | 47.25869 | 11.33092 | 1909 ft | 1 kts | 25° |
| 2026-04-25 21:04 | 47.25870 | 11.33097 | 1910 ft | 1 kts | 53° |
| 2026-04-25 21:04 | 47.25878 | 11.33182 | 1904 ft | 11 kts | 77° |
| 2026-04-25 21:04 | 47.25892 | 11.33284 | 1905 ft | 10 kts | 79° |
| 2026-04-25 21:04 | 47.25906 | 11.33390 | 1902 ft | 12 kts | 79° |
| 2026-04-25 21:05 | 47.25926 | 11.33531 | 1915 ft | 16 kts | 78° |
| 2026-04-25 21:05 | 47.25908 | 11.33689 | 1917 ft | 18 kts | 127° |
| 2026-04-25 21:05 | 47.25825 | 11.33852 | 1912 ft | 23 kts | 122° |
| 2026-04-25 21:05 | 47.25773 | 11.34109 | 1898 ft | 28 kts | 80° |
| 2026-04-25 21:06 | 47.25794 | 11.34288 | 1890 ft | 18 kts | 82° |
| 2026-04-25 21:06 | 47.25815 | 11.34482 | 1899 ft | 20 kts | 80° |
| 2026-04-25 21:06 | 47.25838 | 11.34693 | 1894 ft | 19 kts | 81° |
| 2026-04-25 21:06 | 47.25850 | 11.34815 | 1891 ft | 17 kts | 81° |
| 2026-04-25 21:07 | 47.25872 | 11.35052 | 1901 ft | 16 kts | 80° |
| 2026-04-25 21:07 | 47.25876 | 11.35081 | 1897 ft | 0 kts | 80° |
| 2026-04-25 21:07 | 47.25871 | 11.35095 | 1892 ft | 4 kts | 124° |
| 2026-04-25 21:08 | 47.25840 | 11.35113 | 1901 ft | 3 kts | 169° |
| 2026-04-25 21:08 | 47.25827 | 11.35115 | 1898 ft | 0 kts | 174° |